sensor_id;sensor_type;location;lat;lon;timestamp;P1;durP1;ratioP1;P2;durP2;ratioP2
27804;SDS011;15183;51.350;11.102;2022-11-09T00:00:49;5.70;;;1.20;;
27804;SDS011;15183;51.350;11.102;2022-11-09T00:03:16;4.68;;;1.15;;
27804;SDS011;15183;51.350;11.102;2022-11-09T00:05:42;1.38;;;1.00;;
27804;SDS011;15183;51.350;11.102;2022-11-09T00:08:18;0.90;;;0.90;;
27804;SDS011;15183;51.350;11.102;2022-11-09T00:10:45;1.23;;;0.98;;
27804;SDS011;15183;51.350;11.102;2022-11-09T00:13:11;2.30;;;1.10;;
27804;SDS011;15183;51.350;11.102;2022-11-09T00:15:38;1.52;;;1.10;;
27804;SDS011;15183;51.350;11.102;2022-11-09T00:18:04;1.02;;;0.90;;
27804;SDS011;15183;51.350;11.102;2022-11-09T00:20:31;3.03;;;1.50;;
27804;SDS011;15183;51.350;11.102;2022-11-09T00:22:57;5.47;;;3.08;;
27804;SDS011;15183;51.350;11.102;2022-11-09T00:25:23;4.38;;;2.50;;
27804;SDS011;15183;51.350;11.102;2022-11-09T00:27:50;3.55;;;2.13;;
27804;SDS011;15183;51.350;11.102;2022-11-09T00:30:17;8.52;;;2.97;;
27804;SDS011;15183;51.350;11.102;2022-11-09T00:32:44;2.08;;;1.88;;
27804;SDS011;15183;51.350;11.102;2022-11-09T00:35:10;2.42;;;1.40;;
27804;SDS011;15183;51.350;11.102;2022-11-09T00:37:37;1.45;;;1.35;;
27804;SDS011;15183;51.350;11.102;2022-11-09T00:40:03;2.40;;;1.25;;
27804;SDS011;15183;51.350;11.102;2022-11-09T00:42:31;1.35;;;1.25;;
27804;SDS011;15183;51.350;11.102;2022-11-09T00:44:57;3.00;;;1.60;;
27804;SDS011;15183;51.350;11.102;2022-11-09T00:47:23;1.80;;;1.50;;
27804;SDS011;15183;51.350;11.102;2022-11-09T00:49:50;1.90;;;1.30;;
27804;SDS011;15183;51.350;11.102;2022-11-09T00:52:16;2.88;;;1.70;;
27804;SDS011;15183;51.350;11.102;2022-11-09T00:54:43;1.38;;;1.23;;
27804;SDS011;15183;51.350;11.102;2022-11-09T00:57:10;1.85;;;1.45;;
27804;SDS011;15183;51.350;11.102;2022-11-09T00:59:38;2.50;;;2.05;;
27804;SDS011;15183;51.350;11.102;2022-11-09T01:02:04;2.63;;;1.90;;
27804;SDS011;15183;51.350;11.102;2022-11-09T01:04:31;2.95;;;1.40;;
27804;SDS011;15183;51.350;11.102;2022-11-09T01:06:57;1.20;;;1.10;;
27804;SDS011;15183;51.350;11.102;2022-11-09T01:09:24;1.98;;;1.40;;
27804;SDS011;15183;51.350;11.102;2022-11-09T01:11:50;1.95;;;1.30;;
27804;SDS011;15183;51.350;11.102;2022-11-09T01:14:17;3.55;;;1.95;;
27804;SDS011;15183;51.350;11.102;2022-11-09T01:16:43;3.38;;;1.60;;
27804;SDS011;15183;51.350;11.102;2022-11-09T01:19:10;3.38;;;1.98;;
27804;SDS011;15183;51.350;11.102;2022-11-09T01:21:36;2.78;;;1.77;;
27804;SDS011;15183;51.350;11.102;2022-11-09T01:24:03;4.68;;;1.90;;
27804;SDS011;15183;51.350;11.102;2022-11-09T01:26:30;4.88;;;2.38;;
27804;SDS011;15183;51.350;11.102;2022-11-09T01:28:58;2.03;;;1.70;;
27804;SDS011;15183;51.350;11.102;2022-11-09T01:31:24;3.38;;;1.40;;
27804;SDS011;15183;51.350;11.102;2022-11-09T01:33:51;2.13;;;1.38;;
27804;SDS011;15183;51.350;11.102;2022-11-09T01:36:19;2.53;;;1.50;;
27804;SDS011;15183;51.350;11.102;2022-11-09T01:38:47;2.13;;;1.30;;
27804;SDS011;15183;51.350;11.102;2022-11-09T01:41:22;1.92;;;1.20;;
27804;SDS011;15183;51.350;11.102;2022-11-09T01:44:10;2.58;;;1.30;;
27804;SDS011;15183;51.350;11.102;2022-11-09T01:46:52;2.38;;;1.27;;
27804;SDS011;15183;51.350;11.102;2022-11-09T01:49:37;1.58;;;1.35;;
27804;SDS011;15183;51.350;11.102;2022-11-09T01:54:46;2.40;;;1.60;;
27804;SDS011;15183;51.350;11.102;2022-11-09T01:57:23;1.65;;;1.25;;
27804;SDS011;15183;51.350;11.102;2022-11-09T01:59:57;4.72;;;1.52;;
27804;SDS011;15183;51.350;11.102;2022-11-09T02:02:37;2.08;;;1.40;;
27804;SDS011;15183;51.350;11.102;2022-11-09T02:05:11;3.25;;;1.65;;
27804;SDS011;15183;51.350;11.102;2022-11-09T02:07:42;1.50;;;1.27;;
27804;SDS011;15183;51.350;11.102;2022-11-09T02:10:13;1.52;;;1.40;;
27804;SDS011;15183;51.350;11.102;2022-11-09T02:12:53;2.35;;;1.70;;
27804;SDS011;15183;51.350;11.102;2022-11-09T02:15:22;3.50;;;1.55;;
27804;SDS011;15183;51.350;11.102;2022-11-09T02:17:49;2.42;;;1.60;;
27804;SDS011;15183;51.350;11.102;2022-11-09T02:20:19;2.47;;;1.70;;
27804;SDS011;15183;51.350;11.102;2022-11-09T02:22:47;1.67;;;1.38;;
27804;SDS011;15183;51.350;11.102;2022-11-09T02:25:14;3.88;;;1.80;;
27804;SDS011;15183;51.350;11.102;2022-11-09T02:27:41;2.95;;;1.50;;
27804;SDS011;15183;51.350;11.102;2022-11-09T02:30:09;1.48;;;1.25;;
27804;SDS011;15183;51.350;11.102;2022-11-09T02:32:37;2.38;;;1.48;;
27804;SDS011;15183;51.350;11.102;2022-11-09T02:35:03;1.70;;;1.25;;
27804;SDS011;15183;51.350;11.102;2022-11-09T02:37:33;1.92;;;1.27;;
27804;SDS011;15183;51.350;11.102;2022-11-09T02:40:12;3.08;;;1.77;;
27804;SDS011;15183;51.350;11.102;2022-11-09T02:42:51;2.17;;;1.60;;
27804;SDS011;15183;51.350;11.102;2022-11-09T02:45:17;2.08;;;1.25;;
27804;SDS011;15183;51.350;11.102;2022-11-09T02:47:44;4.85;;;1.25;;
27804;SDS011;15183;51.350;11.102;2022-11-09T02:50:10;1.92;;;1.25;;
27804;SDS011;15183;51.350;11.102;2022-11-09T02:52:37;3.50;;;1.20;;
27804;SDS011;15183;51.350;11.102;2022-11-09T02:55:03;2.95;;;1.30;;
27804;SDS011;15183;51.350;11.102;2022-11-09T02:57:30;2.85;;;1.83;;
27804;SDS011;15183;51.350;11.102;2022-11-09T02:59:56;2.47;;;1.35;;
27804;SDS011;15183;51.350;11.102;2022-11-09T03:02:23;2.15;;;1.30;;
27804;SDS011;15183;51.350;11.102;2022-11-09T03:04:49;1.85;;;1.30;;
27804;SDS011;15183;51.350;11.102;2022-11-09T03:07:16;2.13;;;1.35;;
27804;SDS011;15183;51.350;11.102;2022-11-09T03:09:42;2.85;;;1.80;;
27804;SDS011;15183;51.350;11.102;2022-11-09T03:12:10;2.17;;;1.42;;
27804;SDS011;15183;51.350;11.102;2022-11-09T03:14:59;1.88;;;1.58;;
27804;SDS011;15183;51.350;11.102;2022-11-09T03:17:30;3.10;;;1.38;;
27804;SDS011;15183;51.350;11.102;2022-11-09T03:19:57;2.53;;;1.42;;
27804;SDS011;15183;51.350;11.102;2022-11-09T03:22:24;2.38;;;1.33;;
27804;SDS011;15183;51.350;11.102;2022-11-09T03:24:51;2.10;;;1.35;;
27804;SDS011;15183;51.350;11.102;2022-11-09T03:27:17;4.07;;;1.40;;
27804;SDS011;15183;51.350;11.102;2022-11-09T03:29:44;2.60;;;1.52;;
27804;SDS011;15183;51.350;11.102;2022-11-09T03:32:10;1.45;;;1.35;;
27804;SDS011;15183;51.350;11.102;2022-11-09T03:34:37;1.83;;;1.50;;
27804;SDS011;15183;51.350;11.102;2022-11-09T03:37:03;1.20;;;1.10;;
27804;SDS011;15183;51.350;11.102;2022-11-09T03:39:30;3.95;;;1.33;;
27804;SDS011;15183;51.350;11.102;2022-11-09T03:41:56;4.72;;;1.50;;
27804;SDS011;15183;51.350;11.102;2022-11-09T03:44:22;1.70;;;1.30;;
27804;SDS011;15183;51.350;11.102;2022-11-09T03:46:49;2.67;;;1.40;;
27804;SDS011;15183;51.350;11.102;2022-11-09T03:49:15;2.22;;;1.48;;
27804;SDS011;15183;51.350;11.102;2022-11-09T03:51:42;3.40;;;1.77;;
27804;SDS011;15183;51.350;11.102;2022-11-09T03:54:08;1.90;;;1.40;;
27804;SDS011;15183;51.350;11.102;2022-11-09T03:56:35;4.28;;;1.60;;
27804;SDS011;15183;51.350;11.102;2022-11-09T03:59:01;2.92;;;2.42;;
27804;SDS011;15183;51.350;11.102;2022-11-09T04:01:27;3.35;;;1.75;;
27804;SDS011;15183;51.350;11.102;2022-11-09T04:03:54;3.42;;;1.75;;
27804;SDS011;15183;51.350;11.102;2022-11-09T04:06:20;2.15;;;1.27;;
27804;SDS011;15183;51.350;11.102;2022-11-09T04:08:47;3.35;;;1.83;;
27804;SDS011;15183;51.350;11.102;2022-11-09T04:11:13;3.42;;;1.80;;
27804;SDS011;15183;51.350;11.102;2022-11-09T04:13:40;2.00;;;1.58;;
27804;SDS011;15183;51.350;11.102;2022-11-09T04:16:06;4.38;;;1.77;;
27804;SDS011;15183;51.350;11.102;2022-11-09T04:18:32;1.73;;;1.55;;
27804;SDS011;15183;51.350;11.102;2022-11-09T04:20:59;1.85;;;1.60;;
27804;SDS011;15183;51.350;11.102;2022-11-09T04:23:26;3.80;;;1.70;;
27804;SDS011;15183;51.350;11.102;2022-11-09T04:25:52;3.50;;;1.88;;
27804;SDS011;15183;51.350;11.102;2022-11-09T04:28:19;3.20;;;1.90;;
27804;SDS011;15183;51.350;11.102;2022-11-09T04:30:45;2.03;;;1.80;;
27804;SDS011;15183;51.350;11.102;2022-11-09T04:33:12;1.85;;;1.45;;
27804;SDS011;15183;51.350;11.102;2022-11-09T04:35:38;2.70;;;1.83;;
27804;SDS011;15183;51.350;11.102;2022-11-09T04:38:06;3.15;;;1.70;;
27804;SDS011;15183;51.350;11.102;2022-11-09T04:40:37;1.98;;;1.70;;
27804;SDS011;15183;51.350;11.102;2022-11-09T04:43:04;2.35;;;1.42;;
27804;SDS011;15183;51.350;11.102;2022-11-09T04:45:33;2.30;;;1.70;;
27804;SDS011;15183;51.350;11.102;2022-11-09T04:48:01;2.75;;;1.70;;
27804;SDS011;15183;51.350;11.102;2022-11-09T04:50:30;3.03;;;1.63;;
27804;SDS011;15183;51.350;11.102;2022-11-09T04:53:05;3.35;;;1.88;;
27804;SDS011;15183;51.350;11.102;2022-11-09T04:55:41;2.90;;;1.98;;
27804;SDS011;15183;51.350;11.102;2022-11-09T04:58:08;2.35;;;1.95;;
27804;SDS011;15183;51.350;11.102;2022-11-09T05:00:35;3.28;;;2.10;;
27804;SDS011;15183;51.350;11.102;2022-11-09T05:03:02;2.38;;;1.83;;
27804;SDS011;15183;51.350;11.102;2022-11-09T05:05:34;3.95;;;2.05;;
27804;SDS011;15183;51.350;11.102;2022-11-09T05:08:03;3.17;;;1.95;;
27804;SDS011;15183;51.350;11.102;2022-11-09T05:10:31;2.40;;;2.03;;
27804;SDS011;15183;51.350;11.102;2022-11-09T05:13:01;3.85;;;2.00;;
27804;SDS011;15183;51.350;11.102;2022-11-09T05:15:29;3.55;;;1.90;;
27804;SDS011;15183;51.350;11.102;2022-11-09T05:17:56;3.30;;;1.90;;
27804;SDS011;15183;51.350;11.102;2022-11-09T05:20:25;3.83;;;2.63;;
27804;SDS011;15183;51.350;11.102;2022-11-09T05:22:52;2.90;;;2.00;;
27804;SDS011;15183;51.350;11.102;2022-11-09T05:25:37;1.95;;;1.75;;
27804;SDS011;15183;51.350;11.102;2022-11-09T05:28:03;4.60;;;2.20;;
27804;SDS011;15183;51.350;11.102;2022-11-09T05:30:30;2.55;;;2.25;;
27804;SDS011;15183;51.350;11.102;2022-11-09T05:32:56;3.47;;;2.30;;
27804;SDS011;15183;51.350;11.102;2022-11-09T05:35:23;4.53;;;2.03;;
27804;SDS011;15183;51.350;11.102;2022-11-09T05:37:49;3.25;;;2.22;;
27804;SDS011;15183;51.350;11.102;2022-11-09T05:40:17;3.83;;;1.95;;
27804;SDS011;15183;51.350;11.102;2022-11-09T05:42:44;2.53;;;2.20;;
27804;SDS011;15183;51.350;11.102;2022-11-09T05:45:12;3.58;;;2.55;;
27804;SDS011;15183;51.350;11.102;2022-11-09T05:47:42;4.85;;;3.78;;
27804;SDS011;15183;51.350;11.102;2022-11-09T05:53:33;3.05;;;2.63;;
27804;SDS011;15183;51.350;11.102;2022-11-09T05:56:01;3.53;;;2.72;;
27804;SDS011;15183;51.350;11.102;2022-11-09T05:58:35;2.95;;;2.45;;
27804;SDS011;15183;51.350;11.102;2022-11-09T06:01:07;3.45;;;2.60;;
27804;SDS011;15183;51.350;11.102;2022-11-09T06:03:39;4.68;;;2.53;;
27804;SDS011;15183;51.350;11.102;2022-11-09T06:06:09;3.30;;;2.65;;
27804;SDS011;15183;51.350;11.102;2022-11-09T06:08:38;6.22;;;2.47;;
27804;SDS011;15183;51.350;11.102;2022-11-09T06:11:06;4.72;;;2.72;;
27804;SDS011;15183;51.350;11.102;2022-11-09T06:13:35;2.60;;;2.17;;
27804;SDS011;15183;51.350;11.102;2022-11-09T06:16:03;7.00;;;2.70;;
27804;SDS011;15183;51.350;11.102;2022-11-09T06:18:31;3.80;;;2.92;;
27804;SDS011;15183;51.350;11.102;2022-11-09T06:21:01;3.05;;;2.33;;
27804;SDS011;15183;51.350;11.102;2022-11-09T06:23:29;3.25;;;1.95;;
27804;SDS011;15183;51.350;11.102;2022-11-09T06:25:57;2.20;;;1.70;;
27804;SDS011;15183;51.350;11.102;2022-11-09T06:28:27;4.68;;;2.50;;
27804;SDS011;15183;51.350;11.102;2022-11-09T06:30:58;4.60;;;3.45;;
27804;SDS011;15183;51.350;11.102;2022-11-09T06:33:26;4.20;;;2.47;;
27804;SDS011;15183;51.350;11.102;2022-11-09T06:35:56;7.90;;;4.90;;
27804;SDS011;15183;51.350;11.102;2022-11-09T06:38:23;7.65;;;6.03;;
27804;SDS011;15183;51.350;11.102;2022-11-09T06:40:54;3.63;;;3.03;;
27804;SDS011;15183;51.350;11.102;2022-11-09T06:43:22;3.25;;;2.30;;
27804;SDS011;15183;51.350;11.102;2022-11-09T06:45:50;3.50;;;2.08;;
27804;SDS011;15183;51.350;11.102;2022-11-09T06:48:17;5.38;;;2.95;;
27804;SDS011;15183;51.350;11.102;2022-11-09T06:50:44;4.93;;;3.58;;
27804;SDS011;15183;51.350;11.102;2022-11-09T06:53:12;5.13;;;3.45;;
27804;SDS011;15183;51.350;11.102;2022-11-09T06:55:41;5.45;;;4.30;;
27804;SDS011;15183;51.350;11.102;2022-11-09T06:58:09;3.88;;;3.22;;
27804;SDS011;15183;51.350;11.102;2022-11-09T07:00:40;8.27;;;6.05;;
27804;SDS011;15183;51.350;11.102;2022-11-09T07:03:12;6.95;;;4.68;;
27804;SDS011;15183;51.350;11.102;2022-11-09T07:05:41;4.35;;;3.65;;
27804;SDS011;15183;51.350;11.102;2022-11-09T07:08:07;3.88;;;2.90;;
27804;SDS011;15183;51.350;11.102;2022-11-09T07:10:34;5.90;;;4.20;;
27804;SDS011;15183;51.350;11.102;2022-11-09T07:13:01;4.45;;;3.30;;
27804;SDS011;15183;51.350;11.102;2022-11-09T07:15:28;5.40;;;2.65;;
27804;SDS011;15183;51.350;11.102;2022-11-09T07:17:58;5.40;;;2.70;;
27804;SDS011;15183;51.350;11.102;2022-11-09T07:20:26;6.65;;;4.38;;
27804;SDS011;15183;51.350;11.102;2022-11-09T07:22:53;4.25;;;2.50;;
27804;SDS011;15183;51.350;11.102;2022-11-09T07:25:20;5.50;;;3.20;;
27804;SDS011;15183;51.350;11.102;2022-11-09T07:27:47;4.90;;;3.10;;
27804;SDS011;15183;51.350;11.102;2022-11-09T07:30:14;1.90;;;1.80;;
27804;SDS011;15183;51.350;11.102;2022-11-09T07:32:40;5.75;;;3.25;;
27804;SDS011;15183;51.350;11.102;2022-11-09T07:35:07;3.67;;;2.40;;
27804;SDS011;15183;51.350;11.102;2022-11-09T07:37:35;2.95;;;2.60;;
27804;SDS011;15183;51.350;11.102;2022-11-09T07:40:02;4.10;;;3.22;;
27804;SDS011;15183;51.350;11.102;2022-11-09T07:42:29;2.85;;;2.10;;
27804;SDS011;15183;51.350;11.102;2022-11-09T07:44:56;4.03;;;3.05;;
27804;SDS011;15183;51.350;11.102;2022-11-09T07:47:22;2.53;;;2.00;;
27804;SDS011;15183;51.350;11.102;2022-11-09T07:49:49;2.03;;;1.60;;
27804;SDS011;15183;51.350;11.102;2022-11-09T07:52:15;3.40;;;2.67;;
27804;SDS011;15183;51.350;11.102;2022-11-09T07:54:42;5.55;;;2.50;;
27804;SDS011;15183;51.350;11.102;2022-11-09T07:57:08;3.85;;;2.83;;
27804;SDS011;15183;51.350;11.102;2022-11-09T07:59:35;4.93;;;3.72;;
27804;SDS011;15183;51.350;11.102;2022-11-09T08:02:02;5.65;;;3.15;;
27804;SDS011;15183;51.350;11.102;2022-11-09T08:04:28;3.38;;;2.58;;
27804;SDS011;15183;51.350;11.102;2022-11-09T08:06:54;3.40;;;1.80;;
27804;SDS011;15183;51.350;11.102;2022-11-09T08:09:21;4.95;;;3.80;;
27804;SDS011;15183;51.350;11.102;2022-11-09T08:11:47;4.70;;;3.25;;
27804;SDS011;15183;51.350;11.102;2022-11-09T08:14:14;6.85;;;3.38;;
27804;SDS011;15183;51.350;11.102;2022-11-09T08:16:40;3.70;;;2.40;;
27804;SDS011;15183;51.350;11.102;2022-11-09T08:19:06;4.28;;;3.42;;
27804;SDS011;15183;51.350;11.102;2022-11-09T08:21:35;28.35;;;13.57;;
27804;SDS011;15183;51.350;11.102;2022-11-09T08:24:03;25.90;;;15.70;;
27804;SDS011;15183;51.350;11.102;2022-11-09T08:26:31;17.67;;;11.57;;
27804;SDS011;15183;51.350;11.102;2022-11-09T08:28:57;11.10;;;6.93;;
27804;SDS011;15183;51.350;11.102;2022-11-09T08:31:24;5.03;;;3.30;;
27804;SDS011;15183;51.350;11.102;2022-11-09T08:33:50;3.17;;;2.33;;
27804;SDS011;15183;51.350;11.102;2022-11-09T08:36:17;2.72;;;1.92;;
27804;SDS011;15183;51.350;11.102;2022-11-09T08:38:44;7.63;;;3.75;;
27804;SDS011;15183;51.350;11.102;2022-11-09T08:41:11;2.35;;;1.90;;
27804;SDS011;15183;51.350;11.102;2022-11-09T08:43:38;3.58;;;2.42;;
27804;SDS011;15183;51.350;11.102;2022-11-09T08:46:04;18.58;;;7.25;;
27804;SDS011;15183;51.350;11.102;2022-11-09T08:48:31;15.25;;;9.00;;
27804;SDS011;15183;51.350;11.102;2022-11-09T08:50:58;7.65;;;5.55;;
27804;SDS011;15183;51.350;11.102;2022-11-09T08:53:25;19.48;;;11.68;;
27804;SDS011;15183;51.350;11.102;2022-11-09T08:55:53;7.65;;;5.35;;
27804;SDS011;15183;51.350;11.102;2022-11-09T08:58:20;5.55;;;4.68;;
27804;SDS011;15183;51.350;11.102;2022-11-09T09:00:47;4.57;;;3.72;;
27804;SDS011;15183;51.350;11.102;2022-11-09T09:03:15;2.25;;;1.90;;
27804;SDS011;15183;51.350;11.102;2022-11-09T09:05:42;3.88;;;2.75;;
27804;SDS011;15183;51.350;11.102;2022-11-09T09:08:08;3.30;;;1.90;;
27804;SDS011;15183;51.350;11.102;2022-11-09T09:10:37;3.13;;;1.90;;
27804;SDS011;15183;51.350;11.102;2022-11-09T09:13:05;1.83;;;1.65;;
27804;SDS011;15183;51.350;11.102;2022-11-09T09:15:31;1.40;;;1.20;;
27804;SDS011;15183;51.350;11.102;2022-11-09T09:17:59;1.38;;;1.27;;
27804;SDS011;15183;51.350;11.102;2022-11-09T09:20:26;1.73;;;1.40;;
27804;SDS011;15183;51.350;11.102;2022-11-09T09:22:53;4.05;;;2.40;;
27804;SDS011;15183;51.350;11.102;2022-11-09T09:25:22;2.45;;;1.77;;
27804;SDS011;15183;51.350;11.102;2022-11-09T09:27:49;2.20;;;1.95;;
27804;SDS011;15183;51.350;11.102;2022-11-09T09:30:16;5.65;;;3.75;;
27804;SDS011;15183;51.350;11.102;2022-11-09T09:32:42;3.28;;;1.90;;
27804;SDS011;15183;51.350;11.102;2022-11-09T09:35:10;1.48;;;1.35;;
27804;SDS011;15183;51.350;11.102;2022-11-09T09:37:36;1.60;;;1.50;;
27804;SDS011;15183;51.350;11.102;2022-11-09T09:40:03;4.18;;;3.58;;
27804;SDS011;15183;51.350;11.102;2022-11-09T09:42:34;3.22;;;2.38;;
27804;SDS011;15183;51.350;11.102;2022-11-09T09:45:09;5.45;;;4.45;;
27804;SDS011;15183;51.350;11.102;2022-11-09T09:50:51;5.17;;;3.63;;
27804;SDS011;15183;51.350;11.102;2022-11-09T09:53:39;10.23;;;6.03;;
27804;SDS011;15183;51.350;11.102;2022-11-09T09:56:22;5.40;;;3.50;;
27804;SDS011;15183;51.350;11.102;2022-11-09T09:59:18;9.85;;;7.15;;
27804;SDS011;15183;51.350;11.102;2022-11-09T10:02:22;6.00;;;4.40;;
27804;SDS011;15183;51.350;11.102;2022-11-09T10:04:53;5.40;;;3.63;;
27804;SDS011;15183;51.350;11.102;2022-11-09T10:07:28;5.53;;;4.07;;
27804;SDS011;15183;51.350;11.102;2022-11-09T10:10:28;4.55;;;4.07;;
27804;SDS011;15183;51.350;11.102;2022-11-09T10:22:24;5.90;;;3.53;;
27804;SDS011;15183;51.350;11.102;2022-11-09T10:25:19;7.38;;;5.57;;
27804;SDS011;15183;51.350;11.102;2022-11-09T10:28:06;7.75;;;5.70;;
27804;SDS011;15183;51.350;11.102;2022-11-09T10:30:36;4.68;;;4.18;;
27804;SDS011;15183;51.350;11.102;2022-11-09T10:35:39;4.63;;;3.28;;
27804;SDS011;15183;51.350;11.102;2022-11-09T10:38:19;3.15;;;2.85;;
27804;SDS011;15183;51.350;11.102;2022-11-09T10:43:58;2.10;;;1.90;;
27804;SDS011;15183;51.350;11.102;2022-11-09T10:46:24;8.43;;;6.25;;
27804;SDS011;15183;51.350;11.102;2022-11-09T10:48:51;4.60;;;2.97;;
27804;SDS011;15183;51.350;11.102;2022-11-09T10:51:30;5.60;;;4.68;;
27804;SDS011;15183;51.350;11.102;2022-11-09T10:54:17;5.80;;;4.07;;
27804;SDS011;15183;51.350;11.102;2022-11-09T10:57:28;3.60;;;3.17;;
27804;SDS011;15183;51.350;11.102;2022-11-09T11:07:32;6.50;;;4.93;;
27804;SDS011;15183;51.350;11.102;2022-11-09T11:12:35;7.65;;;2.50;;
27804;SDS011;15183;51.350;11.102;2022-11-09T11:15:13;2.30;;;2.08;;
27804;SDS011;15183;51.350;11.102;2022-11-09T11:17:48;4.97;;;3.08;;
27804;SDS011;15183;51.350;11.102;2022-11-09T11:23:21;9.23;;;6.05;;
27804;SDS011;15183;51.350;11.102;2022-11-09T11:31:29;3.28;;;2.65;;
27804;SDS011;15183;51.350;11.102;2022-11-09T11:33:57;4.80;;;3.30;;
27804;SDS011;15183;51.350;11.102;2022-11-09T11:36:31;1.52;;;1.42;;
27804;SDS011;15183;51.350;11.102;2022-11-09T11:47:16;1.33;;;1.23;;
27804;SDS011;15183;51.350;11.102;2022-11-09T11:50:35;6.30;;;3.90;;
27804;SDS011;15183;51.350;11.102;2022-11-09T11:59:10;4.63;;;3.50;;
27804;SDS011;15183;51.350;11.102;2022-11-09T12:02:12;5.30;;;3.05;;
27804;SDS011;15183;51.350;11.102;2022-11-09T12:10:48;4.05;;;3.00;;
27804;SDS011;15183;51.350;11.102;2022-11-09T12:13:53;6.18;;;4.22;;
27804;SDS011;15183;51.350;11.102;2022-11-09T12:17:05;3.92;;;2.28;;
27804;SDS011;15183;51.350;11.102;2022-11-09T12:20:02;3.67;;;3.20;;
27804;SDS011;15183;51.350;11.102;2022-11-09T12:31:29;2.55;;;1.75;;
27804;SDS011;15183;51.350;11.102;2022-11-09T12:37:01;2.80;;;1.00;;
27804;SDS011;15183;51.350;11.102;2022-11-09T12:39:38;2.42;;;1.52;;
27804;SDS011;15183;51.350;11.102;2022-11-09T12:42:09;1.92;;;1.15;;
27804;SDS011;15183;51.350;11.102;2022-11-09T12:47:38;1.90;;;1.45;;
27804;SDS011;15183;51.350;11.102;2022-11-09T12:50:12;2.13;;;1.50;;
27804;SDS011;15183;51.350;11.102;2022-11-09T12:52:43;3.10;;;2.20;;
27804;SDS011;15183;51.350;11.102;2022-11-09T12:58:26;1.27;;;0.93;;
27804;SDS011;15183;51.350;11.102;2022-11-09T13:03:36;1.85;;;0.98;;
27804;SDS011;15183;51.350;11.102;2022-11-09T13:06:26;2.05;;;1.63;;
27804;SDS011;15183;51.350;11.102;2022-11-09T13:08:56;2.47;;;1.33;;
27804;SDS011;15183;51.350;11.102;2022-11-09T13:11:32;0.80;;;0.80;;
27804;SDS011;15183;51.350;11.102;2022-11-09T13:16:48;4.93;;;1.15;;
27804;SDS011;15183;51.350;11.102;2022-11-09T13:21:59;2.15;;;1.77;;
27804;SDS011;15183;51.350;11.102;2022-11-09T13:24:55;2.85;;;1.75;;
27804;SDS011;15183;51.350;11.102;2022-11-09T13:27:48;1.23;;;1.13;;
27804;SDS011;15183;51.350;11.102;2022-11-09T13:38:15;1.38;;;0.90;;
27804;SDS011;15183;51.350;11.102;2022-11-09T13:44:07;1.98;;;1.38;;
27804;SDS011;15183;51.350;11.102;2022-11-09T13:46:47;2.90;;;1.20;;
27804;SDS011;15183;51.350;11.102;2022-11-09T13:55:13;1.75;;;0.90;;
27804;SDS011;15183;51.350;11.102;2022-11-09T13:58:02;2.60;;;0.82;;
27804;SDS011;15183;51.350;11.102;2022-11-09T14:00:46;1.75;;;1.27;;
27804;SDS011;15183;51.350;11.102;2022-11-09T14:03:17;1.20;;;1.10;;
27804;SDS011;15183;51.350;11.102;2022-11-09T14:05:51;1.13;;;0.95;;
27804;SDS011;15183;51.350;11.102;2022-11-09T14:08:34;1.02;;;1.00;;
27804;SDS011;15183;51.350;11.102;2022-11-09T14:14:12;1.55;;;0.90;;
27804;SDS011;15183;51.350;11.102;2022-11-09T14:17:11;2.30;;;1.52;;
27804;SDS011;15183;51.350;11.102;2022-11-09T14:20:20;1.33;;;1.10;;
27804;SDS011;15183;51.350;11.102;2022-11-09T14:23:15;2.60;;;2.40;;
27804;SDS011;15183;51.350;11.102;2022-11-09T14:25:44;5.07;;;3.15;;
27804;SDS011;15183;51.350;11.102;2022-11-09T14:28:19;5.53;;;2.70;;
27804;SDS011;15183;51.350;11.102;2022-11-09T14:30:54;3.70;;;2.35;;
27804;SDS011;15183;51.350;11.102;2022-11-09T14:35:50;3.47;;;2.42;;
27804;SDS011;15183;51.350;11.102;2022-11-09T14:38:22;3.42;;;2.10;;
27804;SDS011;15183;51.350;11.102;2022-11-09T14:40:53;4.85;;;1.55;;
27804;SDS011;15183;51.350;11.102;2022-11-09T14:46:01;4.03;;;2.75;;
27804;SDS011;15183;51.350;11.102;2022-11-09T14:48:30;2.17;;;1.35;;
27804;SDS011;15183;51.350;11.102;2022-11-09T14:51:02;1.77;;;1.60;;
27804;SDS011;15183;51.350;11.102;2022-11-09T14:53:32;2.00;;;1.40;;
27804;SDS011;15183;51.350;11.102;2022-11-09T14:56:05;5.15;;;1.50;;
27804;SDS011;15183;51.350;11.102;2022-11-09T14:58:35;1.55;;;0.82;;
27804;SDS011;15183;51.350;11.102;2022-11-09T15:03:45;3.40;;;1.60;;
27804;SDS011;15183;51.350;11.102;2022-11-09T15:06:46;3.08;;;2.05;;
27804;SDS011;15183;51.350;11.102;2022-11-09T15:09:20;2.47;;;1.70;;
27804;SDS011;15183;51.350;11.102;2022-11-09T15:11:53;2.08;;;1.27;;
27804;SDS011;15183;51.350;11.102;2022-11-09T15:14:28;2.50;;;1.52;;
27804;SDS011;15183;51.350;11.102;2022-11-09T15:17:15;2.20;;;1.85;;
27804;SDS011;15183;51.350;11.102;2022-11-09T15:19:53;1.52;;;1.10;;
27804;SDS011;15183;51.350;11.102;2022-11-09T15:25:25;2.33;;;1.48;;
27804;SDS011;15183;51.350;11.102;2022-11-09T15:30:42;2.20;;;1.40;;
27804;SDS011;15183;51.350;11.102;2022-11-09T15:36:04;3.33;;;2.35;;
27804;SDS011;15183;51.350;11.102;2022-11-09T15:38:56;3.35;;;1.67;;
27804;SDS011;15183;51.350;11.102;2022-11-09T15:41:41;3.55;;;2.65;;
27804;SDS011;15183;51.350;11.102;2022-11-09T15:44:08;8.15;;;5.00;;
27804;SDS011;15183;51.350;11.102;2022-11-09T15:46:42;4.13;;;3.40;;
27804;SDS011;15183;51.350;11.102;2022-11-09T15:49:17;8.52;;;6.57;;
27804;SDS011;15183;51.350;11.102;2022-11-09T15:51:50;4.88;;;2.95;;
27804;SDS011;15183;51.350;11.102;2022-11-09T15:54:18;2.33;;;2.00;;
27804;SDS011;15183;51.350;11.102;2022-11-09T15:56:46;3.08;;;1.70;;
27804;SDS011;15183;51.350;11.102;2022-11-09T16:03:13;2.70;;;1.95;;
27804;SDS011;15183;51.350;11.102;2022-11-09T16:05:43;4.15;;;2.58;;
27804;SDS011;15183;51.350;11.102;2022-11-09T16:08:10;7.40;;;4.38;;
27804;SDS011;15183;51.350;11.102;2022-11-09T16:10:37;4.95;;;2.45;;
27804;SDS011;15183;51.350;11.102;2022-11-09T16:13:05;5.00;;;2.70;;
27804;SDS011;15183;51.350;11.102;2022-11-09T16:15:34;4.43;;;2.20;;
27804;SDS011;15183;51.350;11.102;2022-11-09T16:18:02;2.95;;;2.33;;
27804;SDS011;15183;51.350;11.102;2022-11-09T16:20:30;6.20;;;3.05;;
27804;SDS011;15183;51.350;11.102;2022-11-09T16:22:56;6.75;;;3.95;;
27804;SDS011;15183;51.350;11.102;2022-11-09T16:25:23;6.00;;;3.83;;
27804;SDS011;15183;51.350;11.102;2022-11-09T16:27:49;4.90;;;2.60;;
27804;SDS011;15183;51.350;11.102;2022-11-09T16:30:16;3.92;;;2.20;;
27804;SDS011;15183;51.350;11.102;2022-11-09T16:32:44;2.88;;;1.80;;
27804;SDS011;15183;51.350;11.102;2022-11-09T16:35:11;5.00;;;2.08;;
27804;SDS011;15183;51.350;11.102;2022-11-09T16:37:38;3.53;;;1.75;;
27804;SDS011;15183;51.350;11.102;2022-11-09T16:40:07;4.35;;;2.88;;
27804;SDS011;15183;51.350;11.102;2022-11-09T16:42:37;4.07;;;2.33;;
27804;SDS011;15183;51.350;11.102;2022-11-09T16:45:07;6.72;;;2.33;;
27804;SDS011;15183;51.350;11.102;2022-11-09T16:47:38;6.00;;;2.67;;
27804;SDS011;15183;51.350;11.102;2022-11-09T16:50:08;4.57;;;3.25;;
27804;SDS011;15183;51.350;11.102;2022-11-09T16:52:35;2.03;;;1.30;;
27804;SDS011;15183;51.350;11.102;2022-11-09T16:55:01;3.85;;;2.15;;
27804;SDS011;15183;51.350;11.102;2022-11-09T16:57:28;4.20;;;2.45;;
27804;SDS011;15183;51.350;11.102;2022-11-09T16:59:54;6.18;;;3.60;;
27804;SDS011;15183;51.350;11.102;2022-11-09T17:02:22;3.50;;;2.55;;
27804;SDS011;15183;51.350;11.102;2022-11-09T17:04:51;6.10;;;1.80;;